Time;durP1;ratioP1;P1;durP2;ratioP2;P2;SDS_P1;SDS_P2;PMS_P1;PMS_P2;Temp;Humidity;BMP_temperature;BMP_pressure;BME280_temperature;BME280_humidity;BME280_pressure;Samples;Min_cycle;Max_cycle;Signal;HPM_P1;HPM_P2
2024/01/29 00:00:21;;;;;;;50.38;47.72;;;;;;;;;;5028227;28;20129;-55
2024/01/29 00:02:47;;;;;;;56.03;53.17;;;;;;;;;;5030350;28;20033;-53
2024/01/29 00:05:12;;;;;;;58.20;55.25;;;;;;;;;;5029561;28;20553;-52
2024/01/29 00:07:38;;;;;;;53.83;51.03;;;;;;;;;;5029523;28;20048;-52
2024/01/29 00:10:05;;;;;;;57.45;54.33;;;;;;;;;;5031525;28;20422;-55
2024/01/29 00:12:31;;;;;;;59.30;56.30;;;;;;;;;;5028684;28;20095;-54
2024/01/29 00:14:56;;;;;;;59.80;56.80;;;;;;;;;;5031026;28;20159;-53
2024/01/29 00:17:21;;;;;;;60.67;57.63;;;;;;;;;;5032903;28;20033;-56
2024/01/29 00:19:47;;;;;;;63.38;60.17;;;;;;;;;;5029523;28;20044;-56
2024/01/29 00:22:12;;;;;;;60.78;57.70;;;;;;;;;;5033233;28;20072;-52
2024/01/29 00:24:37;;;;;;;57.95;54.95;;;;;;;;;;5027780;28;20040;-54
2024/01/29 00:27:03;;;;;;;55.90;53.05;;;;;;;;;;5028470;28;20048;-50
2024/01/29 00:29:28;;;;;;;57.90;54.85;;;;;;;;;;5028892;28;20037;-54
2024/01/29 00:31:54;;;;;;;57.70;54.80;;;;;;;;;;5031217;28;20044;-52
2024/01/29 00:34:20;;;;;;;59.15;56.15;;;;;;;;;;5029288;28;20042;-54
2024/01/29 00:36:45;;;;;;;59.28;56.28;;;;;;;;;;5028489;28;20124;-54
2024/01/29 00:39:11;;;;;;;64.10;60.90;;;;;;;;;;5031534;28;20029;-53
2024/01/29 00:41:36;;;;;;;59.65;56.63;;;;;;;;;;5030956;28;20072;-55
2024/01/29 00:44:02;;;;;;;52.03;49.33;;;;;;;;;;5029921;28;20061;-54
2024/01/29 00:46:27;;;;;;;55.15;52.35;;;;;;;;;;5030224;28;20033;-53
2024/01/29 00:48:53;;;;;;;53.60;50.83;;;;;;;;;;5026894;28;20242;-53
2024/01/29 00:51:18;;;;;;;46.45;44.05;;;;;;;;;;5026496;28;20037;-55
2024/01/29 00:53:44;;;;;;;44.50;42.22;;;;;;;;;;5026937;28;20035;-56
2024/01/29 00:56:09;;;;;;;47.05;44.60;;;;;;;;;;5028423;28;20628;-55
2024/01/29 00:58:35;;;;;;;47.40;44.97;;;;;;;;;;5029128;28;20029;-55
2024/01/29 01:01:00;;;;;;;45.05;42.75;;;;;;;;;;5028422;28;20138;-56
2024/01/29 01:03:25;;;;;;;45.80;43.15;;;;;;;;;;5029202;28;20371;-56
2024/01/29 01:05:51;;;;;;;50.45;47.78;;;;;;;;;;5029573;28;20052;-55
2024/01/29 01:08:16;;;;;;;51.58;48.88;;;;;;;;;;5027534;28;20128;-54
2024/01/29 01:10:42;;;;;;;54.05;51.22;;;;;;;;;;5032223;28;20456;-52
2024/01/29 01:13:07;;;;;;;58.05;55.08;;;;;;;;;;5034030;28;20041;-54
2024/01/29 01:15:33;;;;;;;62.70;59.55;;;;;;;;;;5030538;28;20038;-53
2024/01/29 01:17:59;;;;;;;64.55;61.28;;;;;;;;;;5034377;28;20029;-59
2024/01/29 01:20:25;;;;;;;67.50;64.13;;;;;;;;;;5031850;28;20029;-54
2024/01/29 01:22:50;;;;;;;74.00;70.30;;;;;;;;;;5029780;28;20044;-53
2024/01/29 01:25:16;;;;;;;74.63;70.90;;;;;;;;;;5031125;28;20032;-51
2024/01/29 01:27:41;;;;;;;69.18;65.70;;;;;;;;;;5031933;28;20421;-54
2024/01/29 01:30:07;;;;;;;71.13;67.25;;;;;;;;;;5033038;28;20036;-55
2024/01/29 01:32:32;;;;;;;63.78;60.40;;;;;;;;;;5030582;28;21046;-55
2024/01/29 01:34:58;;;;;;;56.67;53.83;;;;;;;;;;5031544;28;20064;-54
2024/01/29 01:37:23;;;;;;;53.38;50.60;;;;;;;;;;5032053;28;20068;-56
2024/01/29 01:39:52;;;;;;;55.30;52.47;;;;;;;;;;5032246;28;20116;-56
2024/01/29 01:42:24;;;;;;;58.22;55.25;;;;;;;;;;5034088;28;20090;-54
2024/01/29 01:44:49;;;;;;;;;;;;;;;;;;5030655;28;20562;-53
2024/01/29 01:47:15;;;;;;;52.60;49.95;;;;;;;;;;5033735;28;19925;-53
2024/01/29 01:49:41;;;;;;;63.00;59.70;;;;;;;;;;5028511;28;20045;-53
2024/01/29 01:52:07;;;;;;;66.63;63.15;;;;;;;;;;5034115;28;20600;-51
2024/01/29 01:54:33;;;;;;;69.32;65.88;;;;;;;;;;5031526;28;20095;-52
2024/01/29 01:57:00;;;;;;;69.85;66.30;;;;;;;;;;5034558;28;20052;-52
2024/01/29 01:59:25;;;;;;;67.45;64.07;;;;;;;;;;5029627;28;20095;-51
2024/01/29 02:01:52;;;;;;;62.75;59.60;;;;;;;;;;5027691;28;20037;-49
2024/01/29 02:04:18;;;;;;;60.80;57.70;;;;;;;;;;5031853;28;20033;-53
2024/01/29 02:06:43;;;;;;;62.40;59.10;;;;;;;;;;5027510;28;20037;-52
2024/01/29 02:09:09;;;;;;;64.60;61.35;;;;;;;;;;5032582;28;20171;-52
2024/01/29 02:11:34;;;;;;;68.00;64.60;;;;;;;;;;5028646;28;20037;-51
2024/01/29 02:14:00;;;;;;;68.72;65.25;;;;;;;;;;5030767;28;20049;-53
2024/01/29 02:16:25;;;;;;;72.80;69.13;;;;;;;;;;5028155;28;20033;-51
2024/01/29 02:18:50;;;;;;;75.10;71.35;;;;;;;;;;5030626;28;20642;-56
2024/01/29 02:21:16;;;;;;;71.25;67.65;;;;;;;;;;5032437;28;20458;-52
2024/01/29 02:23:45;;;;;;;71.82;68.22;;;;;;;;;;5033057;28;20502;-54
2024/01/29 02:26:11;;;;;;;71.18;67.47;;;;;;;;;;5031726;28;20119;-53
2024/01/29 02:28:36;;;;;;;66.47;63.15;;;;;;;;;;5033091;28;20474;-51
2024/01/29 02:31:02;;;;;;;68.75;65.30;;;;;;;;;;5030167;28;20059;-55
2024/01/29 02:33:27;;;;;;;63.13;59.92;;;;;;;;;;5031464;28;20685;-56
2024/01/29 02:35:53;;;;;;;59.38;56.30;;;;;;;;;;5032748;28;20044;-54
2024/01/29 02:38:18;;;;;;;60.97;57.90;;;;;;;;;;5033449;28;20020;-52
2024/01/29 02:40:43;;;;;;;55.22;52.40;;;;;;;;;;5033175;28;20551;-53
2024/01/29 02:43:10;;;;;;;46.92;44.42;;;;;;;;;;5030842;28;20402;-56
2024/01/29 02:45:35;;;;;;;44.28;41.97;;;;;;;;;;5034870;28;20498;-56
2024/01/29 02:48:00;;;;;;;45.60;43.05;;;;;;;;;;5034831;28;20058;-55
2024/01/29 02:50:26;;;;;;;49.53;47.00;;;;;;;;;;5030781;28;20108;-55
2024/01/29 02:52:52;;;;;;;54.40;51.60;;;;;;;;;;5031769;28;20029;-58
2024/01/29 02:55:17;;;;;;;59.85;56.70;;;;;;;;;;5035619;28;20319;-56
2024/01/29 02:57:42;;;;;;;69.55;65.90;;;;;;;;;;5022219;28;20044;-57
2024/01/29 03:00:08;;;;;;;63.83;60.63;;;;;;;;;;5030463;28;20022;-56
2024/01/29 03:02:33;;;;;;;65.22;61.92;;;;;;;;;;5030929;28;20052;-57
2024/01/29 03:04:59;;;;;;;65.32;61.97;;;;;;;;;;5026114;28;20463;-57
2024/01/29 03:07:24;;;;;;;67.22;63.83;;;;;;;;;;5032162;28;20037;-57
2024/01/29 03:09:49;;;;;;;75.47;71.60;;;;;;;;;;5028862;28;20035;-56
2024/01/29 03:12:15;;;;;;;71.78;68.18;;;;;;;;;;5032409;28;20044;-57
2024/01/29 03:14:41;;;;;;;74.95;71.15;;;;;;;;;;5028154;28;20115;-57
2024/01/29 03:17:07;;;;;;;72.80;68.90;;;;;;;;;;5032498;28;20030;-57
2024/01/29 03:19:32;;;;;;;77.28;72.75;;;;;;;;;;5028282;28;20030;-57
2024/01/29 03:21:58;;;;;;;71.70;67.57;;;;;;;;;;5031020;28;20540;-58
2024/01/29 03:24:23;;;;;;;74.85;71.13;;;;;;;;;;5027470;28;20119;-58
2024/01/29 03:26:48;;;;;;;72.50;68.80;;;;;;;;;;5032449;28;20045;-57
2024/01/29 03:29:14;;;;;;;76.07;72.25;;;;;;;;;;5028712;28;20061;-58
2024/01/29 03:31:39;;;;;;;78.47;74.57;;;;;;;;;;5030048;28;20033;-58
2024/01/29 03:34:05;;;;;;;74.68;70.90;;;;;;;;;;5027497;28;20048;-58
2024/01/29 03:36:30;;;;;;;76.75;72.85;;;;;;;;;;5030642;28;20033;-59
2024/01/29 03:38:55;;;;;;;77.82;73.93;;;;;;;;;;5027705;28;20638;-59
2024/01/29 03:41:20;;;;;;;72.65;68.93;;;;;;;;;;5027337;28;20128;-59
2024/01/29 03:43:46;;;;;;;73.68;70.00;;;;;;;;;;5031678;28;20041;-60
2024/01/29 03:46:11;;;;;;;74.38;70.60;;;;;;;;;;5030926;28;20134;-59
2024/01/29 03:48:37;;;;;;;70.50;67.00;;;;;;;;;;5028595;28;20116;-60
2024/01/29 03:51:02;;;;;;;73.43;69.72;;;;;;;;;;5031759;28;20501;-60
2024/01/29 03:53:27;;;;;;;73.18;69.50;;;;;;;;;;5026263;28;20033;-60
2024/01/29 03:55:54;;;;;;;69.22;65.70;;;;;;;;;;5031062;28;20128;-60
2024/01/29 03:58:20;;;;;;;65.22;61.72;;;;;;;;;;5027576;28;20044;-60
2024/01/29 04:00:46;;;;;;;67.15;63.80;;;;;;;;;;5029312;28;20155;-58
2024/01/29 04:03:11;;;;;;;64.38;61.13;;;;;;;;;;5028894;28;20098;-61
2024/01/29 04:05:37;;;;;;;65.03;61.72;;;;;;;;;;5027529;28;20398;-58
2024/01/29 04:08:02;;;;;;;64.32;61.13;;;;;;;;;;5028687;28;20040;-57
2024/01/29 04:10:28;;;;;;;64.65;61.40;;;;;;;;;;5029892;28;20029;-58
2024/01/29 04:12:53;;;;;;;59.97;56.90;;;;;;;;;;5030624;28;20655;-57
2024/01/29 04:15:18;;;;;;;55.65;52.78;;;;;;;;;;5026357;28;20021;-59
2024/01/29 04:17:43;;;;;;;55.53;52.72;;;;;;;;;;5030147;28;20035;-57
2024/01/29 04:20:09;;;;;;;54.75;51.85;;;;;;;;;;5023348;28;20394;-60
2024/01/29 04:22:35;;;;;;;49.20;46.65;;;;;;;;;;5027933;28;20493;-60
2024/01/29 04:25:04;;;;;;;46.75;44.35;;;;;;;;;;5025444;28;20367;-57
2024/01/29 04:27:30;;;;;;;44.50;42.15;;;;;;;;;;5029652;28;20120;-55
2024/01/29 04:29:55;;;;;;;40.78;38.67;;;;;;;;;;5027814;28;20132;-57
2024/01/29 04:32:21;;;;;;;43.22;41.03;;;;;;;;;;5027506;28;20041;-55
2024/01/29 04:34:47;;;;;;;46.50;44.10;;;;;;;;;;5027852;28;20029;-60
2024/01/29 04:37:13;;;;;;;47.60;45.10;;;;;;;;;;5029984;28;20694;-55
2024/01/29 04:39:38;;;;;;;43.85;41.58;;;;;;;;;;5027368;28;20120;-57
2024/01/29 04:42:04;;;;;;;44.35;42.10;;;;;;;;;;5031373;28;20043;-60
2024/01/29 04:44:30;;;;;;;44.88;42.53;;;;;;;;;;5029533;28;20044;-60
2024/01/29 04:46:55;;;;;;;51.58;48.95;;;;;;;;;;5027858;28;20033;-57
2024/01/29 04:49:21;;;;;;;54.10;51.25;;;;;;;;;;5026929;28;20538;-54
2024/01/29 04:51:46;;;;;;;54.58;51.83;;;;;;;;;;5025059;28;20418;-57
2024/01/29 04:54:11;;;;;;;51.30;48.67;;;;;;;;;;5028474;28;20024;-56
2024/01/29 04:56:37;;;;;;;54.22;51.45;;;;;;;;;;5030858;28;20092;-60
2024/01/29 04:59:03;;;;;;;57.35;54.35;;;;;;;;;;5028077;28;20639;-56
2024/01/29 05:01:28;;;;;;;57.97;55.03;;;;;;;;;;5028262;28;20025;-60
2024/01/29 05:03:53;;;;;;;60.58;57.47;;;;;;;;;;5025038;28;20435;-59
2024/01/29 05:06:19;;;;;;;67.97;64.47;;;;;;;;;;5026534;28;20052;-60
2024/01/29 05:08:45;;;;;;;75.10;71.28;;;;;;;;;;5026083;28;20033;-57
2024/01/29 05:11:10;;;;;;;77.13;73.18;;;;;;;;;;5030236;28;20045;-60
2024/01/29 05:13:36;;;;;;;73.88;70.13;;;;;;;;;;5031005;28;20045;-60
2024/01/29 05:16:01;;;;;;;75.07;71.28;;;;;;;;;;5025732;28;20044;-60
2024/01/29 05:18:26;;;;;;;76.45;72.63;;;;;;;;;;5023428;28;20104;-60
2024/01/29 05:20:52;;;;;;;75.70;71.93;;;;;;;;;;5032551;28;20112;-60
2024/01/29 05:23:18;;;;;;;75.32;71.53;;;;;;;;;;5030135;28;20067;-60
2024/01/29 05:25:44;;;;;;;74.80;70.95;;;;;;;;;;5026408;28;20567;-60
2024/01/29 05:28:09;;;;;;;73.40;69.63;;;;;;;;;;5031802;28;20041;-60
2024/01/29 05:30:35;;;;;;;74.70;70.30;;;;;;;;;;5029864;28;20107;-57
2024/01/29 05:33:00;;;;;;;76.45;72.65;;;;;;;;;;5031127;28;20517;-57
2024/01/29 05:35:25;;;;;;;72.72;69.10;;;;;;;;;;5028269;28;20021;-54
2024/01/29 05:37:51;;;;;;;73.97;70.28;;;;;;;;;;5015798;28;20410;-60
2024/01/29 05:40:16;;;;;;;74.75;71.00;;;;;;;;;;5030122;28;20542;-59
2024/01/29 05:42:42;;;;;;;79.82;75.82;;;;;;;;;;5029473;28;20049;-56
2024/01/29 05:45:07;;;;;;;71.57;68.00;;;;;;;;;;5031058;28;20425;-55
2024/01/29 05:47:33;;;;;;;75.63;71.82;;;;;;;;;;5035583;28;20112;-59
2024/01/29 05:49:59;;;;;;;70.45;66.93;;;;;;;;;;5030757;28;20102;-59
2024/01/29 05:52:25;;;;;;;75.03;71.30;;;;;;;;;;5029190;28;20041;-59
2024/01/29 05:54:50;;;;;;;76.00;72.20;;;;;;;;;;5030731;28;20037;-60
2024/01/29 05:57:18;;;;;;;71.38;67.22;;;;;;;;;;5034665;28;20471;-60
2024/01/29 05:59:44;;;;;;;70.78;67.25;;;;;;;;;;5034522;28;20029;-54
2024/01/29 06:02:09;;;;;;;68.97;65.47;;;;;;;;;;5038472;28;20387;-54
2024/01/29 06:04:34;;;;;;;66.25;62.90;;;;;;;;;;5033600;28;20057;-61
2024/01/29 06:07:00;;;;;;;67.05;63.45;;;;;;;;;;5036387;28;20029;-50
2024/01/29 06:09:25;;;;;;;66.28;62.88;;;;;;;;;;5032907;28;20037;-54
2024/01/29 06:11:51;;;;;;;65.55;62.15;;;;;;;;;;5034368;28;20041;-53
2024/01/29 06:14:17;;;;;;;65.75;62.35;;;;;;;;;;5033405;28;20375;-52
2024/01/29 06:16:45;;;;;;;70.38;66.78;;;;;;;;;;5033765;28;20043;-52
2024/01/29 06:19:15;;;;;;;65.05;61.72;;;;;;;;;;5034563;28;20158;-55
2024/01/29 06:21:44;;;;;;;63.60;60.28;;;;;;;;;;5035449;28;20056;-54
2024/01/29 06:24:09;;;;;;;64.43;61.15;;;;;;;;;;5032288;28;20051;-54
2024/01/29 06:26:35;;;;;;;63.78;60.58;;;;;;;;;;5036574;28;20041;-61
2024/01/29 06:29:01;;;;;;;62.83;59.63;;;;;;;;;;5035183;28;20059;-56
2024/01/29 06:31:26;;;;;;;62.00;58.80;;;;;;;;;;5035927;28;20038;-60
2024/01/29 06:33:53;;;;;;;65.68;62.28;;;;;;;;;;5032457;28;20041;-56
2024/01/29 06:36:19;;;;;;;66.97;63.13;;;;;;;;;;5033757;28;20125;-52
2024/01/29 06:38:45;;;;;;;64.22;61.03;;;;;;;;;;5035597;28;20099;-55
2024/01/29 06:41:23;;;;;;;65.25;61.95;;;;;;;;;;5034173;28;20029;-56
2024/01/29 06:43:53;;;;;;;65.22;61.92;;;;;;;;;;5033692;28;20037;-53
2024/01/29 06:46:19;;;;;;;70.35;66.80;;;;;;;;;;5035077;28;20037;-54
2024/01/29 06:48:45;;;;;;;72.60;68.97;;;;;;;;;;5034503;28;20047;-56
2024/01/29 06:51:10;;;;;;;74.03;70.30;;;;;;;;;;5034703;28;20026;-54
2024/01/29 06:53:36;;;;;;;73.47;69.80;;;;;;;;;;5035270;28;20370;-52
2024/01/29 06:56:05;;;;;;;72.93;69.20;;;;;;;;;;5035141;28;20033;-54
2024/01/29 06:58:31;;;;;;;68.55;65.10;;;;;;;;;;5034712;28;20449;-54
2024/01/29 07:00:59;;;;;;;71.07;67.43;;;;;;;;;;5033231;28;20395;-54
2024/01/29 07:03:25;;;;;;;65.63;62.35;;;;;;;;;;5033930;28;20060;-56
2024/01/29 07:05:50;;;;;;;69.40;65.60;;;;;;;;;;5032989;28;20106;-56
2024/01/29 07:08:16;;;;;;;68.93;65.43;;;;;;;;;;5032564;28;20095;-52
2024/01/29 07:10:42;;;;;;;66.38;63.00;;;;;;;;;;5034223;28;20524;-53
2024/01/29 07:13:07;;;;;;;70.35;66.18;;;;;;;;;;5033659;28;20034;-52
2024/01/29 07:15:33;;;;;;;71.15;67.00;;;;;;;;;;5033137;28;20033;-55
2024/01/29 07:17:58;;;;;;;66.32;62.72;;;;;;;;;;5034480;28;20033;-52
2024/01/29 07:20:23;;;;;;;58.20;55.20;;;;;;;;;;5033208;28;20112;-55
2024/01/29 07:22:51;;;;;;;63.83;60.58;;;;;;;;;;5035401;28;20185;-53
2024/01/29 07:25:16;;;;;;;58.50;55.50;;;;;;;;;;5031769;28;20378;-54
2024/01/29 07:27:42;;;;;;;57.25;54.25;;;;;;;;;;5036925;28;20037;-56
2024/01/29 07:30:07;;;;;;;56.22;53.33;;;;;;;;;;5037116;28;20039;-55
2024/01/29 07:32:32;;;;;;;57.50;54.10;;;;;;;;;;5036094;28;20064;-53
2024/01/29 07:35:00;;;;;;;55.85;53.00;;;;;;;;;;5033948;28;20033;-53
2024/01/29 07:37:29;;;;;;;57.25;54.28;;;;;;;;;;5038130;28;20029;-54
2024/01/29 07:39:55;;;;;;;53.38;50.60;;;;;;;;;;5034508;28;20061;-53
2024/01/29 07:42:21;;;;;;;51.35;48.70;;;;;;;;;;5022796;28;20041;-52
2024/01/29 07:44:48;;;;;;;53.38;50.40;;;;;;;;;;5036169;28;20052;-55
2024/01/29 07:47:14;;;;;;;53.67;50.30;;;;;;;;;;5033948;28;20079;-54
2024/01/29 07:49:39;;;;;;;55.25;52.35;;;;;;;;;;5032373;28;20458;-53
2024/01/29 07:52:05;;;;;;;56.97;53.83;;;;;;;;;;5032838;28;20471;-54
2024/01/29 07:54:30;;;;;;;51.20;48.60;;;;;;;;;;5035179;28;20021;-53
2024/01/29 07:56:56;;;;;;;52.88;50.08;;;;;;;;;;5034158;28;20108;-53
2024/01/29 07:59:21;;;;;;;54.58;51.80;;;;;;;;;;5030851;28;20137;-54
2024/01/29 08:01:47;;;;;;;57.13;54.20;;;;;;;;;;5035329;28;20060;-52
2024/01/29 08:04:13;;;;;;;62.42;59.20;;;;;;;;;;5033910;28;20619;-52
2024/01/29 08:06:38;;;;;;;60.13;57.08;;;;;;;;;;5032543;28;20048;-53
2024/01/29 08:09:04;;;;;;;66.07;62.63;;;;;;;;;;5034583;28;20033;-51
2024/01/29 08:11:30;;;;;;;65.50;61.72;;;;;;;;;;5032082;28;20036;-50
2024/01/29 08:13:56;;;;;;;67.72;64.28;;;;;;;;;;5034430;28;20616;-53
2024/01/29 08:16:21;;;;;;;74.38;70.38;;;;;;;;;;5035029;28;20037;-49
2024/01/29 08:18:47;;;;;;;66.55;63.20;;;;;;;;;;5030115;28;20043;-54
2024/01/29 08:21:12;;;;;;;70.70;67.07;;;;;;;;;;5033689;28;20052;-50
2024/01/29 08:23:37;;;;;;;73.18;69.20;;;;;;;;;;5031804;28;20155;-51
2024/01/29 08:26:03;;;;;;;81.50;77.43;;;;;;;;;;5033742;28;20088;-52
2024/01/29 08:28:28;;;;;;;71.82;68.18;;;;;;;;;;5032198;28;20425;-51
2024/01/29 08:30:55;;;;;;;76.32;72.45;;;;;;;;;;5034422;28;20033;-53
2024/01/29 08:33:20;;;;;;;73.60;69.90;;;;;;;;;;5033966;28;20474;-55
2024/01/29 08:35:46;;;;;;;78.72;74.78;;;;;;;;;;5036555;28;20056;-55
2024/01/29 08:38:11;;;;;;;83.78;79.60;;;;;;;;;;5035893;28;20689;-54
2024/01/29 08:40:37;;;;;;;93.38;88.78;;;;;;;;;;5033458;28;20473;-56
2024/01/29 08:43:02;;;;;;;90.10;85.57;;;;;;;;;;5034534;28;20040;-53
2024/01/29 08:45:28;;;;;;;91.20;86.65;;;;;;;;;;5036013;28;20039;-53
2024/01/29 08:47:53;;;;;;;76.70;72.70;;;;;;;;;;5031026;28;20032;-54
2024/01/29 08:50:19;;;;;;;71.03;67.47;;;;;;;;;;5030399;28;20076;-56
2024/01/29 08:52:44;;;;;;;64.45;60.78;;;;;;;;;;5035742;28;20025;-55
2024/01/29 08:55:11;;;;;;;55.08;52.25;;;;;;;;;;5033548;28;20448;-54
2024/01/29 08:57:36;;;;;;;51.35;48.65;;;;;;;;;;5031325;28;20033;-54
2024/01/29 09:00:03;;;;;;;52.80;50.05;;;;;;;;;;5032871;28;20055;-53
2024/01/29 09:02:31;;;;;;;49.33;46.72;;;;;;;;;;5033746;28;20129;-52
2024/01/29 09:04:57;;;;;;;45.47;42.97;;;;;;;;;;5033612;28;20551;-60
2024/01/29 09:07:22;;;;;;;44.22;41.92;;;;;;;;;;5034327;28;20025;-60
2024/01/29 09:09:47;;;;;;;42.42;40.15;;;;;;;;;;5030080;28;20044;-60
2024/01/29 09:12:13;;;;;;;40.88;38.22;;;;;;;;;;5033963;28;20029;-59
2024/01/29 09:14:38;;;;;;;40.13;37.83;;;;;;;;;;5029447;28;20052;-59
2024/01/29 09:17:04;;;;;;;43.40;40.85;;;;;;;;;;5031365;28;20052;-59
2024/01/29 09:19:29;;;;;;;42.17;39.83;;;;;;;;;;5033910;28;20033;-53
2024/01/29 09:21:54;;;;;;;36.65;34.55;;;;;;;;;;5036549;28;20043;-54
2024/01/29 09:24:20;;;;;;;44.50;42.20;;;;;;;;;;5034096;28;20102;-54
2024/01/29 09:26:45;;;;;;;32.47;30.67;;;;;;;;;;5030721;28;20038;-54
2024/01/29 09:29:11;;;;;;;29.45;27.70;;;;;;;;;;5035391;28;20087;-55
2024/01/29 09:31:36;;;;;;;29.15;27.55;;;;;;;;;;5034800;28;20051;-55
2024/01/29 09:34:03;;;;;;;26.77;25.27;;;;;;;;;;5035654;28;20045;-53
2024/01/29 09:36:28;;;;;;;25.08;23.60;;;;;;;;;;5035939;28;20037;-53
2024/01/29 09:38:53;;;;;;;23.95;22.45;;;;;;;;;;5034923;28;20033;-54
2024/01/29 09:41:19;;;;;;;26.13;24.65;;;;;;;;;;5035075;28;20036;-54
2024/01/29 09:43:46;;;;;;;27.05;25.40;;;;;;;;;;5035652;28;20098;-51
2024/01/29 09:46:14;;;;;;;27.08;25.50;;;;;;;;;;5034773;28;20438;-53
2024/01/29 09:48:41;;;;;;;26.15;24.45;;;;;;;;;;5035799;28;20113;-53
2024/01/29 09:51:10;;;;;;;28.85;27.27;;;;;;;;;;5033555;28;20051;-55
2024/01/29 09:53:36;;;;;;;25.40;24.00;;;;;;;;;;5033664;28;20041;-51
2024/01/29 09:56:02;;;;;;;26.27;24.63;;;;;;;;;;5035720;28;20053;-52
2024/01/29 09:58:27;;;;;;;23.90;22.40;;;;;;;;;;5037232;28;20049;-54
2024/01/29 10:00:55;;;;;;;25.13;23.65;;;;;;;;;;5034156;28;20037;-51
2024/01/29 10:03:27;;;;;;;25.45;24.00;;;;;;;;;;5036290;28;20450;-49
2024/01/29 10:05:54;;;;;;;25.52;23.90;;;;;;;;;;5035460;28;20029;-52
2024/01/29 10:08:21;;;;;;;23.35;21.95;;;;;;;;;;5034500;28;20040;-54
2024/01/29 10:10:48;;;;;;;23.85;22.48;;;;;;;;;;5036141;28;20032;-54
2024/01/29 10:13:13;;;;;;;26.00;24.50;;;;;;;;;;5037760;28;20041;-49
2024/01/29 10:15:39;;;;;;;26.33;24.73;;;;;;;;;;5035281;28;20046;-49
2024/01/29 10:18:10;;;;;;;23.17;21.77;;;;;;;;;;5036454;28;20044;-50
2024/01/29 10:20:35;;;;;;;24.80;23.42;;;;;;;;;;5032761;28;20116;-48
2024/01/29 10:23:02;;;;;;;23.50;21.88;;;;;;;;;;5034170;28;20148;-50
2024/01/29 10:25:29;;;;;;;23.25;21.90;;;;;;;;;;5038303;28;20060;-49
2024/01/29 10:28:13;;;;;;;25.88;24.20;;;;;;;;;;5033425;28;20040;-51
2024/01/29 10:30:39;;;;;;;27.23;25.63;;;;;;;;;;5034718;28;20371;-50
2024/01/29 10:33:05;;;;;;;26.15;24.65;;;;;;;;;;5035273;28;20041;-50
2024/01/29 10:35:31;;;;;;;26.63;24.98;;;;;;;;;;5033977;28;20032;-50
2024/01/29 10:38:04;;;;;;;27.38;25.83;;;;;;;;;;5033385;28;20522;-52
2024/01/29 10:40:35;;;;;;;30.13;28.45;;;;;;;;;;5036675;28;20574;-53
2024/01/29 10:43:01;;;;;;;31.83;30.10;;;;;;;;;;5033396;28;20036;-50
2024/01/29 10:45:28;;;;;;;30.63;28.92;;;;;;;;;;5035176;28;20033;-49
2024/01/29 10:48:07;;;;;;;30.75;29.15;;;;;;;;;;5033717;28;20123;-50
2024/01/29 10:50:33;;;;;;;32.08;30.02;;;;;;;;;;5033599;28;20037;-52
2024/01/29 10:53:00;;;;;;;35.53;33.53;;;;;;;;;;5032697;28;20112;-50
2024/01/29 10:55:30;;;;;;;37.20;35.20;;;;;;;;;;5031866;28;20064;-52
2024/01/29 10:58:00;;;;;;;35.13;33.22;;;;;;;;;;5026725;28;20486;-50
2024/01/29 11:00:26;;;;;;;32.92;31.08;;;;;;;;;;5032222;28;20033;-51
2024/01/29 11:02:52;;;;;;;33.25;31.45;;;;;;;;;;5032768;28;20038;-50
2024/01/29 11:05:18;;;;;;;32.67;30.88;;;;;;;;;;5036055;28;20094;-52
2024/01/29 11:07:45;;;;;;;32.83;31.02;;;;;;;;;;5033420;28;20041;-51
2024/01/29 11:10:20;;;;;;;28.73;27.13;;;;;;;;;;5035147;28;20033;-52
2024/01/29 11:12:47;;;;;;;33.28;31.17;;;;;;;;;;5032815;28;20044;-49
2024/01/29 11:15:13;;;;;;;36.58;34.55;;;;;;;;;;5037746;28;20060;-53
2024/01/29 11:17:42;;;;;;;32.30;30.38;;;;;;;;;;5035617;28;20088;-52
2024/01/29 11:20:13;;;;;;;35.72;33.63;;;;;;;;;;5032066;28;20059;-51
2024/01/29 11:22:41;;;;;;;39.92;37.78;;;;;;;;;;5036988;28;20040;-51
2024/01/29 11:25:14;;;;;;;39.42;37.35;;;;;;;;;;5036013;28;20486;-53
2024/01/29 11:27:42;;;;;;;36.65;34.50;;;;;;;;;;5033693;28;20024;-51
2024/01/29 11:30:18;;;;;;;41.67;39.33;;;;;;;;;;5032212;28;20048;-53
2024/01/29 11:32:44;;;;;;;38.55;36.35;;;;;;;;;;5030024;28;20099;-53
2024/01/29 11:35:19;;;;;;;38.65;36.05;;;;;;;;;;5032508;28;20080;-54
2024/01/29 11:37:48;;;;;;;37.20;34.85;;;;;;;;;;5031172;28;20668;-50
2024/01/29 11:40:38;;;;;;;35.80;33.88;;;;;;;;;;5034198;28;20061;-52
2024/01/29 11:43:10;;;;;;;37.88;35.63;;;;;;;;;;5033675;28;20041;-54
2024/01/29 11:45:36;;;;;;;35.30;33.05;;;;;;;;;;5034976;28;20044;-50
2024/01/29 11:48:02;;;;;;;36.28;34.10;;;;;;;;;;5033721;28;20455;-51
2024/01/29 11:50:28;;;;;;;33.40;31.60;;;;;;;;;;5032583;28;20037;-52
2024/01/29 11:52:54;;;;;;;35.45;33.38;;;;;;;;;;5027988;28;21224;-50
2024/01/29 11:55:21;;;;;;;33.50;31.70;;;;;;;;;;5031533;28;20037;-54
2024/01/29 11:57:47;;;;;;;34.83;32.83;;;;;;;;;;5032692;28;20028;-54
2024/01/29 12:00:18;;;;;;;36.92;34.80;;;;;;;;;;5032496;28;20033;-54
2024/01/29 12:02:45;;;;;;;38.05;35.70;;;;;;;;;;5031512;28;20036;-52
2024/01/29 12:05:13;;;;;;;35.35;33.08;;;;;;;;;;5032388;28;20048;-50
2024/01/29 12:07:38;;;;;;;35.63;33.70;;;;;;;;;;5032526;28;20075;-52
2024/01/29 12:10:04;;;;;;;34.90;33.00;;;;;;;;;;5030676;28;20054;-50
2024/01/29 12:12:30;;;;;;;34.53;32.70;;;;;;;;;;5028822;28;20416;-50
2024/01/29 12:14:55;;;;;;;34.60;32.50;;;;;;;;;;5033676;28;20132;-54
2024/01/29 12:17:21;;;;;;;31.70;30.00;;;;;;;;;;5030815;28;20080;-54
2024/01/29 12:19:47;;;;;;;33.97;32.08;;;;;;;;;;5032647;28;20479;-50
2024/01/29 12:22:13;;;;;;;33.78;31.88;;;;;;;;;;5033648;28;20064;-52
2024/01/29 12:24:38;;;;;;;35.88;33.85;;;;;;;;;;5034207;28;20586;-52
2024/01/29 12:27:04;;;;;;;35.83;33.88;;;;;;;;;;5031849;28;20150;-49
2024/01/29 12:29:29;;;;;;;36.13;34.15;;;;;;;;;;5031135;28;20037;-54
2024/01/29 12:31:55;;;;;;;36.45;34.47;;;;;;;;;;5032880;28;20177;-52
2024/01/29 12:34:21;;;;;;;37.55;35.35;;;;;;;;;;5034141;28;20029;-53
2024/01/29 12:36:52;;;;;;;40.53;38.03;;;;;;;;;;5031251;28;20067;-53
2024/01/29 12:39:17;;;;;;;41.28;38.35;;;;;;;;;;5034682;28;20945;-53
2024/01/29 12:41:43;;;;;;;42.65;40.35;;;;;;;;;;5033179;28;20120;-50
2024/01/29 12:44:10;;;;;;;42.17;39.55;;;;;;;;;;5032026;28;20032;-49
2024/01/29 12:46:35;;;;;;;40.38;38.25;;;;;;;;;;5031359;28;20072;-50
2024/01/29 12:49:03;;;;;;;38.90;36.80;;;;;;;;;;5030059;28;20851;-50
2024/01/29 12:51:28;;;;;;;40.55;38.35;;;;;;;;;;5034045;28;20051;-53
2024/01/29 12:53:55;;;;;;;39.13;36.80;;;;;;;;;;5033293;28;20021;-55
2024/01/29 12:56:22;;;;;;;40.13;36.92;;;;;;;;;;5031407;28;20515;-53
2024/01/29 12:58:47;;;;;;;39.90;37.63;;;;;;;;;;5035147;28;20060;-54
2024/01/29 13:01:13;;;;;;;40.70;38.47;;;;;;;;;;5035338;28;20060;-52
2024/01/29 13:03:39;;;;;;;39.03;36.92;;;;;;;;;;5032039;28;20037;-52
2024/01/29 13:06:05;;;;;;;39.72;37.63;;;;;;;;;;5035526;28;20031;-52
2024/01/29 13:08:31;;;;;;;36.83;34.83;;;;;;;;;;5037263;28;20037;-50
2024/01/29 13:10:57;;;;;;;38.40;36.20;;;;;;;;;;5037931;28;20108;-53
2024/01/29 13:13:22;;;;;;;39.30;37.13;;;;;;;;;;5036392;28;20128;-53
2024/01/29 13:15:51;;;;;;;36.80;34.83;;;;;;;;;;5037829;28;20055;-52
2024/01/29 13:18:17;;;;;;;35.08;33.13;;;;;;;;;;5035501;28;20660;-50
2024/01/29 13:20:43;;;;;;;36.47;34.28;;;;;;;;;;5034922;28;20037;-55
2024/01/29 13:23:09;;;;;;;35.85;33.92;;;;;;;;;;5036661;28;20025;-51
2024/01/29 13:25:35;;;;;;;35.33;33.25;;;;;;;;;;5038211;28;20020;-51
2024/01/29 13:28:00;;;;;;;35.97;33.97;;;;;;;;;;5033234;28;20045;-54
2024/01/29 13:30:26;;;;;;;37.58;35.58;;;;;;;;;;5038147;28;20037;-54
2024/01/29 13:32:51;;;;;;;36.25;34.25;;;;;;;;;;5033952;28;20041;-54
2024/01/29 13:35:17;;;;;;;35.35;33.35;;;;;;;;;;5035397;28;20108;-51
2024/01/29 13:37:42;;;;;;;35.30;33.20;;;;;;;;;;5030650;28;20037;-52
2024/01/29 13:40:09;;;;;;;36.38;34.38;;;;;;;;;;5031342;28;20043;-50
2024/01/29 13:42:35;;;;;;;35.47;33.58;;;;;;;;;;5036408;28;20119;-53
2024/01/29 13:45:00;;;;;;;33.78;31.90;;;;;;;;;;5035313;28;20123;-53
2024/01/29 13:47:27;;;;;;;37.28;35.28;;;;;;;;;;5036831;28;20068;-50
2024/01/29 13:49:52;;;;;;;36.92;34.92;;;;;;;;;;5035273;28;20504;-53
2024/01/29 13:52:17;;;;;;;36.40;34.22;;;;;;;;;;5034685;28;20033;-52
2024/01/29 13:54:44;;;;;;;40.05;37.85;;;;;;;;;;5031812;28;20072;-51
2024/01/29 13:57:09;;;;;;;35.10;33.08;;;;;;;;;;5033050;28;20064;-52
2024/01/29 13:59:35;;;;;;;37.17;35.13;;;;;;;;;;5034340;28;20084;-50
2024/01/29 14:02:01;;;;;;;38.92;36.63;;;;;;;;;;5031914;28;20029;-53
2024/01/29 14:04:26;;;;;;;37.42;35.42;;;;;;;;;;5035170;28;20029;-53
2024/01/29 14:06:57;;;;;;;35.72;33.70;;;;;;;;;;5034966;28;20041;-53
2024/01/29 14:09:22;;;;;;;36.75;34.65;;;;;;;;;;5036280;28;20036;-50
2024/01/29 14:11:48;;;;;;;39.97;37.83;;;;;;;;;;5034111;28;20049;-52